< Cyclone 202011 2020 Season Cyclone 202102 >
Cyclone 202012 (Harold)
General InformationTrack Information on Google MapsDetailed Wind Information || ResourceGoogle EarthGE AnimationAtom FeedGeoJSON
Detalied Best Track (Time Zone = UTC)
Year Month Day Hour Lat. Long. Pressure (hPa) Wind (kt) Class Image Chart
2020 4 1 00 -8.7 154.7 1009 15 2 Image --
2020 4 1 06 -8.9 155.0 1009 15 2 Image --
2020 4 1 12 -8.9 155.4 1005 25 2 Image --
2020 4 1 18 -9.1 155.9 1001 30 2 Image --
2020 4 2 00 -9.3 156.4 1000 30 2 Image --
2020 4 2 06 -9.7 156.8 997 35 3 Image --
2020 4 2 12 -9.9 157.8 999 35 3 Image --
2020 4 2 18 -10.1 159.0 998 35 3 Image --
2020 4 3 00 -10.6 161.5 996 35 3 Image --
2020 4 3 06 -11.8 162.2 993 45 3 Image --
2020 4 3 12 -12.6 163.0 992 50 4 Image --
2020 4 3 18 -13.5 164.0 980 65 5 Image --
2020 4 4 00 -13.8 164.2 965 80 5 Image --
2020 4 4 06 -14.2 164.9 947 100 5 Image --
2020 4 4 12 -14.5 165.3 948 100 5 Image --
2020 4 4 18 -14.9 165.8 952 95 5 Image --
2020 4 5 00 -15.5 165.7 957 90 5 Image --
2020 4 5 06 -15.5 165.5 958 90 5 Image --
2020 4 5 12 -15.3 165.6 952 95 5 Image --
2020 4 5 18 -15.4 166.2 938 110 5 Image --
2020 4 6 00 -15.5 166.9 938 110 5 Image --
2020 4 6 06 -15.7 167.8 930 115 5 Image --
2020 4 6 12 -15.9 168.8 920 125 5 Image --
2020 4 6 18 -16.3 169.6 924 120 5 Image --
2020 4 7 00 -16.5 171.2 939 110 5 Image --
2020 4 7 06 -17.0 172.3 948 100 5 Image --
2020 4 7 12 -17.2 174.0 957 95 5 Image --
2020 4 7 18 -17.7 175.8 960 90 5 Image --
2020 4 8 00 -18.8 177.9 956 95 5 Image --
2020 4 8 06 -19.6 180.0 955 95 5 Image --
2020 4 8 12 -20.5 182.1 947 105 5 Image --
2020 4 8 18 -22.0 184.7 951 100 5 Image --
2020 4 9 00 -23.1 186.9 945 105 5 Image --
2020 4 9 06 -24.6 190.2 949 100 5 Image --
2020 4 9 12 -25.8 192.5 957 80 5 Image --
2020 4 9 18 -27.3 195.5 965 70 5 Image --
2020 4 10 00 -29.2 198.7 975 60 4 Image --
2020 4 10 06 -30.9 202.1 975 50 4 Image --
2020 4 10 12 -32.9 206.1 982 50 4 Image --
2020 4 10 18 -33.9 209.1 988 35 3 Image --
2020 4 11 00 -34.9 212.1 988 35 3 Image --
< Cyclone 202011 2020 Season Cyclone 202102 >

Help